createdAt,value
2022-12-01T00:01:23.099Z,32.90
2022-12-01T00:04:08.485Z,31.33
2022-12-01T00:06:53.811Z,35.15
2022-12-01T00:09:58.782Z,30.60
2022-12-01T00:12:44.671Z,35.65
2022-12-01T00:15:34.519Z,32.72
2022-12-01T00:18:20.630Z,36.47
2022-12-01T00:21:06.683Z,35.05
2022-12-01T00:23:56.628Z,40.35
2022-12-01T00:26:42.660Z,37.17
2022-12-01T00:29:28.899Z,39.60
2022-12-01T00:32:15.658Z,40.65
2022-12-01T00:35:01.146Z,41.65
2022-12-01T00:37:46.576Z,39.15
2022-12-01T00:40:33.185Z,42.00
2022-12-01T00:43:19.497Z,38.40
2022-12-01T00:46:05.832Z,36.20
2022-12-01T00:48:52.181Z,46.55
2022-12-01T00:51:37.766Z,36.83
2022-12-01T00:54:23.869Z,38.28
2022-12-01T00:57:10.440Z,40.42
2022-12-01T00:59:56.290Z,39.10
2022-12-01T01:02:42.370Z,42.80
2022-12-01T01:05:28.135Z,42.27
2022-12-01T01:08:15.236Z,38.23
2022-12-01T01:11:01.357Z,39.75
2022-12-01T01:13:47.153Z,40.67
2022-12-01T01:16:33.393Z,32.33
2022-12-01T01:19:19.354Z,35.20
2022-12-01T01:22:05.273Z,30.98
2022-12-01T01:24:50.653Z,30.45
2022-12-01T01:27:36.727Z,27.65
2022-12-01T01:30:23.104Z,32.08
2022-12-01T01:33:09.263Z,32.75
2022-12-01T01:36:00.099Z,31.83
2022-12-01T01:38:46.755Z,31.55
2022-12-01T01:41:33.779Z,33.42
2022-12-01T01:44:49.315Z,31.65
2022-12-01T01:47:40.504Z,35.22
2022-12-01T01:50:28.008Z,32.35
2022-12-01T01:53:14.874Z,29.75
2022-12-01T01:56:03.207Z,30.90
2022-12-01T01:58:50.491Z,29.40
2022-12-01T02:01:36.905Z,29.50
2022-12-01T02:04:25.067Z,31.90
2022-12-01T02:07:12.925Z,30.05
2022-12-01T02:09:59.413Z,30.92
2022-12-01T02:13:06.735Z,36.20
2022-12-01T02:16:20.160Z,33.63
2022-12-01T02:19:38.790Z,39.10
2022-12-01T02:22:33.857Z,39.70
2022-12-01T02:25:44.783Z,37.80
2022-12-01T02:28:39.180Z,34.20
2022-12-01T02:31:38.511Z,37.50
2022-12-01T02:34:32.985Z,38.67
2022-12-01T02:37:41.211Z,33.00
2022-12-01T02:40:46.782Z,35.72
2022-12-01T02:43:44.226Z,31.42
2022-12-01T02:46:41.799Z,32.00
2022-12-01T02:49:36.024Z,38.67
2022-12-01T02:52:25.028Z,31.77
2022-12-01T02:55:13.088Z,32.85
2022-12-01T02:57:58.938Z,30.92
2022-12-01T03:01:26.500Z,35.97
2022-12-01T03:04:46.593Z,31.65
2022-12-01T03:07:56.425Z,31.10
2022-12-01T03:11:02.867Z,31.42
2022-12-01T03:14:22.503Z,26.95
2022-12-01T03:17:15.285Z,29.30
2022-12-01T03:20:25.021Z,30.55
2022-12-01T03:23:19.888Z,28.52
2022-12-01T03:26:09.006Z,29.30
2022-12-01T03:28:59.000Z,28.75
2022-12-01T03:31:51.427Z,28.83
2022-12-01T03:34:50.296Z,25.70
2022-12-01T03:37:53.620Z,28.20
2022-12-01T03:40:40.677Z,30.88
2022-12-01T03:43:33.021Z,27.48
2022-12-01T03:46:28.001Z,28.83
2022-12-01T03:49:17.696Z,27.45
2022-12-01T03:52:15.912Z,28.38
2022-12-01T03:55:28.807Z,30.27
2022-12-01T03:58:21.181Z,30.58
2022-12-01T04:01:08.280Z,33.43
2022-12-01T04:03:54.026Z,29.85
2022-12-01T04:06:42.025Z,30.20
2022-12-01T04:09:27.843Z,26.13
2022-12-01T04:12:29.826Z,27.87
2022-12-01T04:15:17.346Z,29.07
2022-12-01T04:18:03.090Z,32.03
2022-12-01T04:20:50.074Z,34.58
2022-12-01T04:23:55.234Z,28.38
2022-12-01T04:26:42.021Z,34.20
2022-12-01T04:29:28.475Z,31.90
2022-12-01T04:32:14.761Z,40.45
2022-12-01T04:35:00.395Z,34.93
2022-12-01T04:37:46.313Z,35.88
2022-12-01T04:40:32.078Z,34.78
2022-12-01T04:43:17.753Z,32.70
2022-12-01T04:46:29.281Z,31.13
2022-12-01T04:49:15.250Z,34.53
2022-12-01T04:52:01.118Z,31.67
2022-12-01T04:54:46.859Z,33.47
2022-12-01T04:57:33.683Z,29.40
2022-12-01T05:00:19.947Z,32.63
2022-12-01T05:03:07.690Z,32.22
2022-12-01T05:06:07.959Z,35.78
2022-12-01T05:09:01.431Z,30.60
2022-12-01T05:11:47.352Z,29.67
2022-12-01T05:14:32.859Z,38.50
2022-12-01T05:17:18.351Z,34.05
2022-12-01T05:20:23.231Z,36.78
2022-12-01T05:23:12.289Z,38.70
2022-12-01T05:26:04.200Z,39.47
2022-12-01T05:28:49.579Z,33.10
2022-12-01T05:31:35.687Z,41.80
2022-12-01T05:34:21.781Z,34.27
2022-12-01T05:37:08.443Z,41.78
2022-12-01T05:39:54.232Z,33.83
2022-12-01T05:42:39.739Z,34.63
2022-12-01T05:45:26.007Z,36.83
2022-12-01T05:48:12.486Z,40.42
2022-12-01T05:50:58.735Z,37.72
2022-12-01T05:53:45.035Z,38.67
2022-12-01T05:56:30.424Z,34.60
2022-12-01T05:59:16.857Z,40.17
2022-12-01T06:02:02.931Z,38.85
2022-12-01T06:04:48.683Z,39.55
2022-12-01T06:07:35.700Z,34.45
2022-12-01T06:10:22.286Z,40.15
2022-12-01T06:13:08.563Z,32.75
2022-12-01T06:16:02.965Z,28.48
2022-12-01T06:18:48.713Z,38.85
2022-12-01T06:21:34.350Z,27.58
2022-12-01T06:24:20.152Z,35.15
2022-12-01T06:27:06.335Z,31.08
2022-12-01T06:29:52.223Z,27.50
2022-12-01T06:32:38.555Z,36.45
2022-12-01T06:35:24.195Z,35.67
2022-12-01T06:38:10.089Z,31.77
2022-12-01T06:40:56.729Z,32.30
2022-12-01T06:43:42.654Z,37.85
2022-12-01T06:46:28.979Z,58.80
2022-12-01T06:49:15.164Z,31.38
2022-12-01T06:52:01.232Z,40.38
2022-12-01T06:54:46.810Z,33.17
2022-12-01T06:57:34.059Z,35.25
2022-12-01T07:00:20.298Z,41.25
2022-12-01T07:03:06.576Z,39.28
2022-12-01T07:05:58.931Z,40.17
2022-12-01T07:08:45.006Z,53.17
2022-12-01T07:11:32.253Z,36.42
2022-12-01T07:14:23.635Z,46.58
2022-12-01T07:17:10.022Z,57.03
2022-12-01T07:19:57.015Z,39.15
2022-12-01T07:22:43.085Z,43.42
2022-12-01T07:25:28.835Z,44.30
2022-12-01T07:28:14.928Z,42.25
2022-12-01T07:31:10.146Z,57.08
2022-12-01T07:33:56.098Z,41.70
2022-12-01T07:36:41.746Z,45.75
2022-12-01T07:39:27.904Z,48.90
2022-12-01T07:42:14.572Z,48.72
2022-12-01T07:45:00.518Z,36.30
2022-12-01T07:47:46.765Z,40.50
2022-12-01T07:50:32.929Z,46.50
2022-12-01T07:53:18.476Z,51.92
2022-12-01T07:56:08.535Z,43.22
2022-12-01T07:58:55.977Z,40.00
2022-12-01T08:01:44.628Z,52.72
2022-12-01T08:04:30.962Z,44.72
2022-12-01T08:07:16.567Z,50.60
2022-12-01T08:10:02.533Z,41.88
2022-12-01T08:12:48.824Z,42.47
2022-12-01T08:15:36.052Z,42.95
2022-12-01T08:18:23.023Z,47.47
2022-12-01T08:21:11.946Z,73.82
2022-12-01T08:23:58.219Z,46.63
2022-12-01T08:26:43.807Z,49.60
2022-12-01T08:29:29.883Z,52.03
2022-12-01T08:32:18.080Z,55.60
2022-12-01T08:35:05.147Z,45.83
2022-12-01T08:37:54.710Z,36.15
2022-12-01T08:40:40.457Z,63.10
2022-12-01T08:43:55.821Z,53.97
2022-12-01T08:46:33.941Z,40.33
2022-12-01T08:49:19.716Z,53.10
2022-12-01T08:52:05.702Z,58.75
2022-12-01T08:54:51.950Z,59.20
2022-12-01T08:57:38.123Z,62.83
2022-12-01T09:00:23.671Z,46.63
2022-12-01T09:03:09.303Z,52.63
2022-12-01T09:06:00.934Z,48.15
2022-12-01T09:08:48.310Z,56.00
2022-12-01T09:11:37.098Z,50.28
2022-12-01T09:14:23.780Z,49.63
2022-12-01T09:17:09.699Z,47.03
2022-12-01T09:19:55.255Z,39.50
2022-12-01T09:22:40.967Z,39.17
2022-12-01T09:25:26.752Z,42.90
2022-12-01T09:28:12.156Z,45.35
2022-12-01T09:31:07.927Z,39.72
2022-12-01T09:33:59.698Z,40.63
2022-12-01T09:36:46.808Z,38.17
2022-12-01T09:39:32.983Z,33.42
2022-12-01T09:42:22.311Z,39.15
2022-12-01T09:45:20.279Z,33.27
2022-12-01T09:48:07.828Z,32.60
2022-12-01T09:50:54.035Z,41.83
2022-12-01T09:53:40.645Z,34.42
2022-12-01T09:56:32.396Z,40.15
2022-12-01T09:59:25.049Z,33.15
2022-12-01T10:02:43.083Z,27.67
2022-12-01T10:06:10.255Z,30.00
2022-12-01T10:09:15.742Z,30.63
2022-12-01T10:12:13.321Z,33.83
2022-12-01T10:15:18.962Z,31.23
2022-12-01T10:18:07.240Z,32.63
2022-12-01T10:21:00.043Z,35.63
2022-12-01T10:24:18.139Z,37.03
2022-12-01T10:27:30.025Z,36.30
2022-12-01T10:30:18.739Z,36.17
2022-12-01T10:33:27.093Z,39.15
2022-12-01T10:36:12.596Z,37.55
2022-12-01T10:38:58.467Z,35.60
2022-12-01T10:41:46.335Z,36.17
2022-12-01T10:44:33.145Z,34.10
2022-12-01T10:47:24.477Z,37.20
2022-12-01T10:50:28.173Z,37.10
2022-12-01T10:53:23.754Z,40.55
2022-12-01T10:56:16.967Z,39.90
2022-12-01T10:59:15.827Z,34.08
2022-12-01T11:02:05.435Z,36.95
2022-12-01T11:05:06.546Z,36.30
2022-12-01T11:07:52.975Z,36.53
2022-12-01T11:10:39.145Z,39.03
2022-12-01T11:13:29.746Z,39.10
2022-12-01T11:16:45.320Z,38.38
2022-12-01T11:19:34.849Z,40.92
2022-12-01T11:22:24.755Z,38.45
2022-12-01T11:25:20.745Z,40.58
2022-12-01T11:28:06.853Z,40.13
2022-12-01T11:30:59.924Z,40.30
2022-12-01T11:33:51.572Z,50.53
2022-12-01T11:36:47.227Z,44.95
2022-12-01T11:39:38.952Z,45.50
2022-12-01T11:42:28.571Z,40.80
2022-12-01T11:45:39.225Z,47.90
2022-12-01T11:48:28.714Z,43.20
2022-12-01T11:51:18.820Z,42.38
2022-12-01T11:54:17.122Z,43.05
2022-12-01T11:57:32.526Z,44.08
2022-12-01T12:00:16.068Z,44.67
2022-12-01T12:03:25.165Z,42.85
2022-12-01T12:09:45.270Z,45.00
2022-12-01T12:12:47.259Z,49.05
2022-12-01T12:15:52.532Z,48.67
2022-12-01T12:19:16.212Z,47.25
2022-12-01T12:22:16.295Z,49.00
2022-12-01T12:25:24.357Z,49.57
2022-12-01T12:28:52.346Z,49.28
2022-12-01T12:32:20.200Z,52.13
2022-12-01T12:35:35.134Z,49.97
2022-12-01T12:38:41.492Z,51.78
2022-12-01T12:41:39.720Z,51.03
2022-12-01T12:44:55.421Z,49.17
2022-12-01T12:48:15.415Z,47.55
2022-12-01T12:51:24.525Z,48.75
2022-12-01T12:54:26.713Z,49.50
2022-12-01T12:57:25.473Z,49.85
2022-12-01T13:00:21.851Z,49.20
2022-12-01T13:03:23.587Z,47.67
2022-12-01T13:06:16.144Z,47.47
2022-12-01T13:09:09.893Z,48.28
2022-12-01T13:12:03.021Z,51.28
2022-12-01T13:15:00.997Z,48.53
2022-12-01T13:18:16.584Z,46.17
2022-12-01T13:21:04.482Z,47.40
2022-12-01T13:23:52.820Z,45.95
2022-12-01T13:26:41.510Z,45.70
2022-12-01T13:29:33.531Z,47.10
2022-12-01T13:32:33.928Z,44.30
2022-12-01T13:35:26.425Z,43.13
2022-12-01T13:38:31.518Z,45.25
2022-12-01T13:41:25.131Z,45.78
2022-12-01T13:44:34.593Z,41.47
2022-12-01T13:47:20.144Z,41.25
2022-12-01T13:50:43.721Z,41.13
2022-12-01T13:53:37.751Z,44.72
2022-12-01T13:56:25.976Z,43.42
2022-12-01T13:59:49.689Z,42.40
2022-12-01T14:02:36.885Z,42.78
2022-12-01T14:05:23.152Z,44.78
2022-12-01T14:08:23.498Z,40.90
2022-12-01T14:11:23.816Z,43.25
2022-12-01T14:14:09.748Z,47.65
2022-12-01T14:17:02.605Z,44.25
2022-12-01T14:19:52.205Z,43.38
2022-12-01T14:22:47.196Z,41.72
2022-12-01T14:25:32.982Z,41.03
2022-12-01T14:29:07.696Z,43.95
2022-12-01T14:31:53.547Z,40.95
2022-12-01T14:34:40.333Z,38.33
2022-12-01T14:37:34.087Z,39.38
2022-12-01T14:40:24.163Z,41.80
2022-12-01T14:43:31.454Z,44.80
2022-12-01T14:46:24.763Z,44.60
2022-12-01T14:49:36.190Z,47.30
2022-12-01T14:52:43.243Z,42.00
2022-12-01T14:55:39.586Z,43.58
2022-12-01T14:58:32.100Z,41.63
2022-12-01T15:01:21.158Z,49.70
2022-12-01T15:04:06.919Z,40.78
2022-12-01T15:06:56.342Z,43.88
2022-12-01T15:09:59.930Z,42.20
2022-12-01T15:12:47.648Z,35.92
2022-12-01T15:15:33.281Z,38.15
2022-12-01T15:18:32.486Z,42.88
2022-12-01T15:21:28.462Z,39.20
2022-12-01T15:24:28.549Z,35.72
2022-12-01T15:27:32.342Z,42.70
2022-12-01T15:30:19.089Z,37.67
2022-12-01T15:33:06.815Z,35.42
2022-12-01T15:35:53.255Z,34.58
2022-12-01T15:38:42.601Z,37.95
2022-12-01T15:41:29.764Z,33.75
2022-12-01T15:44:23.195Z,32.35
2022-12-01T15:47:43.545Z,38.63
2022-12-01T15:50:38.658Z,34.63
2022-12-01T15:53:33.433Z,38.17
2022-12-01T15:56:36.931Z,38.97
2022-12-01T15:59:37.455Z,35.63
2022-12-01T16:02:32.089Z,31.27
2022-12-01T16:05:20.443Z,31.67
2022-12-01T16:08:21.987Z,34.50
2022-12-01T16:11:13.697Z,38.35
2022-12-01T16:14:03.079Z,28.37
2022-12-01T16:16:51.652Z,29.58
2022-12-01T16:19:39.072Z,30.15
2022-12-01T16:22:25.197Z,31.37
2022-12-01T16:25:39.091Z,30.95
2022-12-01T16:28:30.976Z,31.20
2022-12-01T16:31:20.823Z,34.90
2022-12-01T16:34:18.728Z,37.43
2022-12-01T16:37:12.980Z,36.97
2022-12-01T16:39:59.456Z,31.88
2022-12-01T16:42:46.143Z,33.75
2022-12-01T16:45:31.979Z,33.38
2022-12-01T16:48:20.871Z,33.53
2022-12-01T16:51:07.832Z,32.20
2022-12-01T16:53:53.443Z,32.63
2022-12-01T16:56:39.610Z,31.65
2022-12-01T16:59:26.367Z,33.47
2022-12-01T17:02:12.355Z,32.33
2022-12-01T17:04:58.432Z,30.73
2022-12-01T17:07:44.844Z,29.42
2022-12-01T17:10:30.638Z,27.65
2022-12-01T17:13:16.871Z,29.47
2022-12-01T17:16:06.218Z,29.27
2022-12-01T17:18:53.139Z,27.65
2022-12-01T17:21:38.885Z,27.17
2022-12-01T17:24:25.911Z,26.13
2022-12-01T17:27:11.938Z,25.65
2022-12-01T17:29:58.901Z,24.15
2022-12-01T17:32:46.825Z,25.30
2022-12-01T17:35:32.872Z,23.65
2022-12-01T17:38:18.491Z,24.70
2022-12-01T17:41:09.571Z,31.67
2022-12-01T17:43:55.219Z,24.95
2022-12-01T17:46:41.853Z,26.05
2022-12-01T17:49:28.031Z,26.98
2022-12-01T17:52:13.766Z,27.13
2022-12-01T17:55:00.277Z,27.35
2022-12-01T17:57:46.096Z,26.35
2022-12-01T18:00:32.547Z,25.13
2022-12-01T18:03:19.515Z,24.25
2022-12-01T18:06:05.797Z,25.33
2022-12-01T18:08:51.368Z,24.92
2022-12-01T18:11:37.706Z,26.13
2022-12-01T18:14:25.722Z,26.97
2022-12-01T18:17:11.295Z,22.08
2022-12-01T18:19:56.662Z,22.33
2022-12-01T18:22:43.403Z,21.70
2022-12-01T18:25:29.673Z,20.88
2022-12-01T18:28:16.103Z,21.73
2022-12-01T18:31:07.419Z,19.80
2022-12-01T18:33:54.306Z,21.90
2022-12-01T18:36:41.941Z,21.13
2022-12-01T18:39:28.408Z,22.23
2022-12-01T18:42:14.771Z,21.88
2022-12-01T18:45:00.679Z,21.00
2022-12-01T18:47:46.051Z,23.13
2022-12-01T18:50:33.423Z,21.00
2022-12-01T18:53:20.092Z,22.05
2022-12-01T18:56:10.298Z,21.07
2022-12-01T18:58:59.015Z,21.85
2022-12-01T19:01:48.428Z,23.13
2022-12-01T19:04:34.139Z,24.08
2022-12-01T19:07:22.902Z,25.08
2022-12-01T19:10:11.817Z,25.35
2022-12-01T19:12:57.636Z,23.35
2022-12-01T19:15:43.540Z,23.65
2022-12-01T19:18:30.488Z,23.98
2022-12-01T19:21:19.471Z,24.65
2022-12-01T19:24:05.903Z,24.13
2022-12-01T19:26:52.234Z,23.15
2022-12-01T19:29:37.830Z,24.58
2022-12-01T19:32:23.766Z,24.67
2022-12-01T19:35:10.053Z,22.23
2022-12-01T19:37:56.651Z,23.98
2022-12-01T19:40:42.650Z,25.27
2022-12-01T19:43:28.281Z,27.52
2022-12-01T19:46:16.686Z,25.90
2022-12-01T19:49:03.951Z,23.98
2022-12-01T19:51:49.811Z,24.98
2022-12-01T19:54:37.713Z,26.65
2022-12-01T19:57:23.666Z,26.90
2022-12-01T20:00:10.028Z,27.20
2022-12-01T20:03:00.536Z,25.55
2022-12-01T20:05:46.150Z,26.38
2022-12-01T20:08:35.489Z,25.95
2022-12-01T20:11:22.365Z,25.90
2022-12-01T20:14:08.483Z,27.13
2022-12-01T20:16:56.491Z,26.47
2022-12-01T20:19:42.174Z,26.65
2022-12-01T20:22:35.262Z,27.58
2022-12-01T20:25:21.541Z,28.50
2022-12-01T20:28:07.330Z,26.20
2022-12-01T20:30:52.968Z,26.50
2022-12-01T20:33:39.484Z,26.42
2022-12-01T20:36:26.243Z,27.77
2022-12-01T20:39:12.696Z,28.15
2022-12-01T20:41:58.595Z,28.85
2022-12-01T20:44:44.968Z,29.48
2022-12-01T20:47:31.455Z,29.85
2022-12-01T20:50:17.305Z,28.25
2022-12-01T20:53:03.345Z,27.02
2022-12-01T20:55:49.119Z,27.95
2022-12-01T20:58:37.676Z,28.88
2022-12-01T21:01:24.093Z,29.40
2022-12-01T21:04:09.625Z,29.65
2022-12-01T21:06:58.771Z,27.52
2022-12-01T21:09:44.857Z,28.40
2022-12-01T21:12:50.945Z,27.38
2022-12-01T21:15:46.689Z,27.20
2022-12-01T21:18:41.851Z,26.50
2022-12-01T21:21:30.110Z,28.55
2022-12-01T21:24:26.118Z,30.33
2022-12-01T21:27:17.870Z,27.58
2022-12-01T21:30:16.043Z,26.85
2022-12-01T21:33:31.185Z,28.87
2022-12-01T21:36:22.498Z,28.05
2022-12-01T21:39:18.158Z,28.73
2022-12-01T21:42:17.103Z,27.58
2022-12-01T21:45:02.907Z,27.27
2022-12-01T21:47:48.631Z,27.90
2022-12-01T21:50:34.627Z,29.27
2022-12-01T21:53:21.843Z,28.38
2022-12-01T21:56:35.718Z,27.23
2022-12-01T21:59:23.967Z,27.58
2022-12-01T22:02:35.197Z,27.90
2022-12-01T22:06:01.031Z,27.48
2022-12-01T22:08:56.242Z,26.48
2022-12-01T22:11:44.875Z,24.75
2022-12-01T22:14:36.220Z,24.60
2022-12-01T22:17:22.101Z,26.08
2022-12-01T22:20:22.755Z,25.58
2022-12-01T22:23:13.812Z,25.38
2022-12-01T22:26:00.422Z,26.75
2022-12-01T22:28:48.678Z,26.10
2022-12-01T22:31:34.867Z,26.55
2022-12-01T22:34:20.968Z,25.23
2022-12-01T22:37:36.267Z,26.30
2022-12-01T22:40:38.270Z,26.00
2022-12-01T22:43:28.014Z,26.48
2022-12-01T22:46:29.002Z,25.67
2022-12-01T22:49:22.976Z,25.75
2022-12-01T22:52:29.530Z,27.08
2022-12-01T22:55:16.229Z,27.33
2022-12-01T22:58:09.790Z,26.27
2022-12-01T23:00:58.163Z,28.92
2022-12-01T23:03:44.510Z,26.55
2022-12-01T23:06:54.259Z,29.55
2022-12-01T23:09:44.508Z,31.17
2022-12-01T23:12:33.076Z,28.75
2022-12-01T23:15:37.490Z,28.88
2022-12-01T23:18:29.811Z,28.33
2022-12-01T23:21:16.346Z,26.48
2022-12-01T23:24:06.185Z,26.83
2022-12-01T23:26:52.845Z,28.73
2022-12-01T23:29:38.885Z,26.95
2022-12-01T23:32:24.574Z,26.52
2022-12-01T23:35:19.457Z,26.08
2022-12-01T23:38:09.335Z,28.83
2022-12-01T23:40:58.814Z,27.40
2022-12-01T23:43:45.811Z,27.73
2022-12-01T23:46:32.767Z,27.52
2022-12-01T23:49:25.874Z,27.35
2022-12-01T23:52:17.167Z,27.08
2022-12-01T23:55:07.704Z,26.13
2022-12-01T23:57:54.001Z,26.75
